createdAt,value
2022-11-24T00:01:09.822Z,12.90
2022-11-24T00:03:36.314Z,11.10
2022-11-24T00:06:07.988Z,14.88
2022-11-24T00:08:39.062Z,12.52
2022-11-24T00:11:07.721Z,13.88
2022-11-24T00:13:34.681Z,15.27
2022-11-24T00:16:05.874Z,11.27
2022-11-24T00:18:32.573Z,10.57
2022-11-24T00:20:58.883Z,13.15
2022-11-24T00:23:25.211Z,11.98
2022-11-24T00:25:51.710Z,10.23
2022-11-24T00:28:18.261Z,10.20
2022-11-24T00:30:44.790Z,11.77
2022-11-24T00:33:11.177Z,12.45
2022-11-24T00:35:37.493Z,12.52
2022-11-24T00:38:03.830Z,14.53
2022-11-24T00:40:34.881Z,12.52
2022-11-24T00:43:01.702Z,12.05
2022-11-24T00:45:28.283Z,15.13
2022-11-24T00:47:54.618Z,13.43
2022-11-24T00:50:21.456Z,11.93
2022-11-24T00:52:47.956Z,10.38
2022-11-24T00:55:14.334Z,12.27
2022-11-24T00:57:40.826Z,12.48
2022-11-24T01:00:08.214Z,10.27
2022-11-24T01:02:34.993Z,12.97
2022-11-24T01:05:03.213Z,11.25
2022-11-24T01:07:30.957Z,13.13
2022-11-24T01:09:57.431Z,11.50
2022-11-24T01:12:23.797Z,13.63
2022-11-24T01:14:50.330Z,9.67
2022-11-24T01:17:16.769Z,13.77
2022-11-24T01:19:43.253Z,12.85
2022-11-24T01:22:09.819Z,11.13
2022-11-24T01:24:36.445Z,15.27
2022-11-24T01:27:02.953Z,10.77
2022-11-24T01:29:29.514Z,12.13
2022-11-24T01:31:56.099Z,13.50
2022-11-24T01:34:22.668Z,14.75
2022-11-24T01:36:49.171Z,11.13
2022-11-24T01:39:15.507Z,12.47
2022-11-24T01:41:42.201Z,13.38
2022-11-24T01:44:29.851Z,10.95
2022-11-24T01:47:07.119Z,14.18
2022-11-24T01:49:47.772Z,11.15
2022-11-24T01:52:21.942Z,13.40
2022-11-24T01:55:11.758Z,14.70
2022-11-24T01:57:48.963Z,12.30
2022-11-24T02:00:15.976Z,11.18
2022-11-24T02:02:44.438Z,12.27
2022-11-24T02:05:24.255Z,10.80
2022-11-24T02:07:54.286Z,11.10
2022-11-24T02:10:22.250Z,14.90
2022-11-24T02:12:51.625Z,10.57
2022-11-24T02:15:19.308Z,11.60
2022-11-24T02:17:46.320Z,17.50
2022-11-24T02:20:14.693Z,11.88
2022-11-24T02:23:00.058Z,10.02
2022-11-24T02:25:29.465Z,11.65
2022-11-24T02:27:58.178Z,9.68
2022-11-24T02:30:24.737Z,10.80
2022-11-24T02:32:52.460Z,10.18
2022-11-24T02:35:19.684Z,10.05
2022-11-24T02:37:46.251Z,10.82
2022-11-24T02:40:16.550Z,13.98
2022-11-24T02:42:46.281Z,9.63
2022-11-24T02:45:15.067Z,10.38
2022-11-24T02:47:41.652Z,9.02
2022-11-24T02:50:08.457Z,9.57
2022-11-24T02:52:34.965Z,11.82
2022-11-24T02:55:01.469Z,10.13
2022-11-24T02:57:27.963Z,10.95
2022-11-24T02:59:57.216Z,12.25
2022-11-24T03:02:23.854Z,13.52
2022-11-24T03:04:50.468Z,10.02
2022-11-24T03:07:16.997Z,13.70
2022-11-24T03:09:43.641Z,11.18
2022-11-24T03:12:10.152Z,10.32
2022-11-24T03:14:36.843Z,13.57
2022-11-24T03:17:04.210Z,10.98
2022-11-24T03:19:30.698Z,12.37
2022-11-24T03:21:57.057Z,11.77
2022-11-24T03:24:23.453Z,14.45
2022-11-24T03:26:49.869Z,16.45
2022-11-24T03:29:16.979Z,13.88
2022-11-24T03:31:43.616Z,13.17
2022-11-24T03:34:10.311Z,11.68
2022-11-24T03:36:36.653Z,14.98
2022-11-24T03:39:03.453Z,13.68
2022-11-24T03:41:29.806Z,16.02
2022-11-24T03:43:56.351Z,11.77
2022-11-24T03:46:22.830Z,11.82
2022-11-24T03:48:49.252Z,13.13
2022-11-24T03:51:15.759Z,22.67
2022-11-24T03:53:42.245Z,29.48
2022-11-24T03:56:08.632Z,38.17
2022-11-24T03:58:35.384Z,25.75
2022-11-24T04:01:02.132Z,24.55
2022-11-24T04:03:28.597Z,13.77
2022-11-24T04:05:55.104Z,30.83
2022-11-24T04:08:21.637Z,18.43
2022-11-24T04:10:53.256Z,18.00
2022-11-24T04:13:23.749Z,12.60
2022-11-24T04:15:50.620Z,30.38
2022-11-24T04:18:17.446Z,13.63
2022-11-24T04:20:44.219Z,14.47
2022-11-24T04:23:11.411Z,18.17
2022-11-24T04:25:38.038Z,21.02
2022-11-24T04:28:04.714Z,23.75
2022-11-24T04:30:31.314Z,18.40
2022-11-24T04:32:57.797Z,10.23
2022-11-24T04:35:24.522Z,11.00
2022-11-24T04:37:51.089Z,10.48
2022-11-24T04:40:17.917Z,10.05
2022-11-24T04:42:44.414Z,8.75
2022-11-24T04:45:11.598Z,6.93
2022-11-24T04:47:38.958Z,8.73
2022-11-24T04:50:07.816Z,9.48
2022-11-24T04:52:34.375Z,10.10
2022-11-24T04:55:00.997Z,10.02
2022-11-24T04:57:28.093Z,11.13
2022-11-24T04:59:55.442Z,8.35
2022-11-24T05:02:22.951Z,9.75
2022-11-24T05:04:49.503Z,11.15
2022-11-24T05:07:19.109Z,9.02
2022-11-24T05:10:05.188Z,11.63
2022-11-24T05:12:31.576Z,10.00
2022-11-24T05:14:59.429Z,10.25
2022-11-24T05:17:34.328Z,10.15
2022-11-24T05:20:01.133Z,10.35
2022-11-24T05:22:29.647Z,11.20
2022-11-24T05:24:56.225Z,8.85
2022-11-24T05:27:23.089Z,8.35
2022-11-24T05:29:50.039Z,8.52
2022-11-24T05:32:16.564Z,8.00
2022-11-24T05:34:43.236Z,10.20
2022-11-24T05:37:09.735Z,7.25
2022-11-24T05:39:36.810Z,8.60
2022-11-24T05:42:25.942Z,8.20
2022-11-24T05:44:53.551Z,7.80
2022-11-24T05:47:20.268Z,6.37
2022-11-24T05:49:46.693Z,8.40
2022-11-24T05:52:13.456Z,9.30
2022-11-24T05:54:40.098Z,7.18
2022-11-24T05:57:06.563Z,9.13
2022-11-24T05:59:33.910Z,6.10
2022-11-24T06:02:00.813Z,8.90
2022-11-24T06:04:27.422Z,10.52
2022-11-24T06:06:53.914Z,4.90
2022-11-24T06:09:20.490Z,8.35
2022-11-24T06:11:50.271Z,7.50
2022-11-24T06:14:16.802Z,6.50
2022-11-24T06:16:43.356Z,10.68
2022-11-24T06:19:11.090Z,9.35
2022-11-24T06:21:37.721Z,7.68
2022-11-24T06:24:04.836Z,10.13
2022-11-24T06:26:31.788Z,8.90
2022-11-24T06:28:58.329Z,6.53
2022-11-24T06:31:24.862Z,9.23
2022-11-24T06:33:51.470Z,6.43
2022-11-24T06:36:18.042Z,5.53
2022-11-24T06:38:44.573Z,9.55
2022-11-24T06:41:16.063Z,5.35
2022-11-24T06:43:42.617Z,7.43
2022-11-24T06:46:09.330Z,7.80
2022-11-24T06:48:35.814Z,12.47
2022-11-24T06:51:04.811Z,12.20
2022-11-24T06:53:33.108Z,7.25
2022-11-24T06:56:00.610Z,7.35
2022-11-24T06:58:27.330Z,7.40
2022-11-24T07:00:54.014Z,9.60
2022-11-24T07:03:20.681Z,7.22
2022-11-24T07:05:47.082Z,8.02
2022-11-24T07:08:17.850Z,9.40
2022-11-24T07:10:44.799Z,7.78
2022-11-24T07:13:11.314Z,7.30
2022-11-24T07:15:37.825Z,6.18
2022-11-24T07:18:04.661Z,8.25
2022-11-24T07:20:30.985Z,4.97
2022-11-24T07:22:58.198Z,6.55
2022-11-24T07:25:25.409Z,7.57
2022-11-24T07:27:59.598Z,6.53
2022-11-24T07:30:27.431Z,8.63
2022-11-24T07:33:02.078Z,6.95
2022-11-24T07:35:29.387Z,8.18
2022-11-24T07:37:57.525Z,9.37
2022-11-24T07:40:25.935Z,8.48
2022-11-24T07:42:52.633Z,8.60
2022-11-24T07:45:19.054Z,6.93
2022-11-24T07:47:45.532Z,6.38
2022-11-24T07:50:12.849Z,8.77
2022-11-24T07:52:39.744Z,8.88
2022-11-24T07:55:07.554Z,8.73
2022-11-24T07:57:34.039Z,7.30
2022-11-24T08:00:00.390Z,8.13
2022-11-24T08:02:26.923Z,8.83
2022-11-24T08:04:53.417Z,8.52
2022-11-24T08:07:20.062Z,8.70
2022-11-24T08:09:46.655Z,10.07
2022-11-24T08:12:13.007Z,9.63
2022-11-24T08:14:39.505Z,11.27
2022-11-24T08:17:05.901Z,9.27
2022-11-24T08:19:32.325Z,8.38
2022-11-24T08:21:58.827Z,9.25
2022-11-24T08:24:25.342Z,12.68
2022-11-24T08:26:51.885Z,8.13
2022-11-24T08:29:18.241Z,8.15
2022-11-24T08:31:44.766Z,8.10
2022-11-24T08:34:11.101Z,9.15
2022-11-24T08:36:37.616Z,11.63
2022-11-24T08:39:04.116Z,12.47
2022-11-24T08:41:31.125Z,11.80
2022-11-24T08:43:57.807Z,10.23
2022-11-24T08:46:24.528Z,8.10
2022-11-24T08:48:53.438Z,9.25
2022-11-24T08:51:23.326Z,7.37
2022-11-24T08:53:54.509Z,8.20
2022-11-24T08:56:20.861Z,8.32
2022-11-24T08:58:47.463Z,11.35
2022-11-24T09:01:16.510Z,10.30
2022-11-24T09:03:49.956Z,7.20
2022-11-24T09:06:19.108Z,9.02
2022-11-24T09:08:45.633Z,8.05
2022-11-24T09:11:13.841Z,6.35
2022-11-24T09:13:41.207Z,8.15
2022-11-24T09:16:12.173Z,9.03
2022-11-24T09:18:39.188Z,8.98
2022-11-24T09:21:17.492Z,7.88
2022-11-24T09:23:46.157Z,8.63
2022-11-24T09:26:21.253Z,9.25
2022-11-24T09:28:48.304Z,7.53
2022-11-24T09:31:17.031Z,7.30
2022-11-24T09:33:44.557Z,10.82
2022-11-24T09:36:11.364Z,6.97
2022-11-24T09:38:37.957Z,8.70
2022-11-24T09:41:31.510Z,8.30
2022-11-24T09:44:35.521Z,10.48
2022-11-24T09:47:32.475Z,10.07
2022-11-24T09:50:24.022Z,8.20
2022-11-24T09:53:03.884Z,9.45
2022-11-24T09:55:39.218Z,9.83
2022-11-24T09:58:31.199Z,9.35
2022-11-24T10:00:58.684Z,8.63
2022-11-24T10:03:39.520Z,9.73
2022-11-24T10:06:22.259Z,9.10
2022-11-24T10:09:15.321Z,10.13
2022-11-24T10:12:04.252Z,7.18
2022-11-24T10:14:59.069Z,8.45
2022-11-24T10:17:45.593Z,8.45
2022-11-24T10:20:40.835Z,8.10
2022-11-24T10:23:39.757Z,6.00
2022-11-24T10:26:38.394Z,10.65
2022-11-24T10:29:26.214Z,7.97
2022-11-24T10:31:56.138Z,8.43
2022-11-24T10:34:31.441Z,10.38
2022-11-24T10:37:00.545Z,8.60
2022-11-24T10:39:37.309Z,11.82
2022-11-24T10:42:23.738Z,8.38
2022-11-24T10:45:03.072Z,7.90
2022-11-24T10:47:30.361Z,7.38
2022-11-24T10:50:02.471Z,7.30
2022-11-24T10:52:31.844Z,8.65
2022-11-24T10:55:04.773Z,7.68
2022-11-24T10:57:32.680Z,6.82
2022-11-24T10:59:59.988Z,6.68
2022-11-24T11:02:28.344Z,10.47
2022-11-24T11:04:54.964Z,8.65
2022-11-24T11:07:25.233Z,7.35
2022-11-24T11:10:19.674Z,8.10
2022-11-24T11:12:46.198Z,6.40
2022-11-24T11:15:30.315Z,6.47
2022-11-24T11:17:59.217Z,7.38
2022-11-24T11:20:29.949Z,7.50
2022-11-24T11:22:58.888Z,8.35
2022-11-24T11:25:36.240Z,8.43
2022-11-24T11:28:22.075Z,7.90
2022-11-24T11:31:21.113Z,6.90
2022-11-24T11:34:04.796Z,8.38
2022-11-24T11:36:33.903Z,7.70
2022-11-24T11:39:00.563Z,7.55
2022-11-24T11:41:34.039Z,11.33
2022-11-24T11:44:26.575Z,6.35
2022-11-24T11:46:56.342Z,5.55
2022-11-24T11:49:23.763Z,7.15
2022-11-24T11:52:13.810Z,9.07
2022-11-24T11:55:05.470Z,8.23
2022-11-24T11:57:49.917Z,7.03
2022-11-24T12:00:20.131Z,7.03
2022-11-24T12:03:05.575Z,7.45
2022-11-24T12:05:41.153Z,6.57
2022-11-24T12:08:26.027Z,7.27
2022-11-24T12:11:07.798Z,5.97
2022-11-24T12:13:48.596Z,6.78
2022-11-24T12:16:39.530Z,5.57
2022-11-24T12:19:21.809Z,9.95
2022-11-24T12:21:57.586Z,7.17
2022-11-24T12:24:38.769Z,5.22
2022-11-24T12:27:09.945Z,7.22
2022-11-24T12:30:10.053Z,8.05
2022-11-24T12:33:07.389Z,9.93
2022-11-24T12:35:36.788Z,7.90
2022-11-24T12:38:53.852Z,5.85
2022-11-24T12:41:41.317Z,7.97
2022-11-24T12:44:30.795Z,8.13
2022-11-24T12:47:16.431Z,7.05
2022-11-24T12:50:08.061Z,5.87
2022-11-24T12:52:47.833Z,7.57
2022-11-24T12:55:21.411Z,8.68
2022-11-24T12:57:59.459Z,9.32
2022-11-24T13:00:34.948Z,6.30
2022-11-24T13:03:20.286Z,6.33
2022-11-24T13:05:58.866Z,7.05
2022-11-24T13:08:28.187Z,9.90
2022-11-24T13:10:56.390Z,10.27
2022-11-24T13:13:29.810Z,8.23
2022-11-24T13:16:20.641Z,8.20
2022-11-24T13:18:46.882Z,9.35
2022-11-24T13:21:42.818Z,10.20
2022-11-24T13:24:19.683Z,9.90
2022-11-24T13:26:49.177Z,6.72
2022-11-24T13:29:27.970Z,7.77
2022-11-24T13:31:55.481Z,5.85
2022-11-24T13:34:40.469Z,5.63
2022-11-24T13:37:27.291Z,5.35
2022-11-24T13:40:02.316Z,4.65
2022-11-24T13:42:41.495Z,4.10
2022-11-24T13:45:39.925Z,4.60
2022-11-24T13:48:18.730Z,7.15
2022-11-24T13:50:51.941Z,5.50
2022-11-24T13:53:30.287Z,6.53
2022-11-24T13:56:05.833Z,5.60
2022-11-24T13:59:01.404Z,8.13
2022-11-24T14:01:34.773Z,9.82
2022-11-24T14:04:30.955Z,9.45
2022-11-24T14:07:07.398Z,7.25
2022-11-24T14:09:43.525Z,11.70
2022-11-24T14:12:18.062Z,9.07
2022-11-24T14:14:47.208Z,6.22
2022-11-24T14:17:14.054Z,5.57
2022-11-24T14:20:01.343Z,5.72
2022-11-24T14:22:36.867Z,4.63
2022-11-24T14:25:03.854Z,6.55
2022-11-24T14:27:37.187Z,7.78
2022-11-24T14:30:25.194Z,8.30
2022-11-24T14:32:56.947Z,8.68
2022-11-24T14:35:29.594Z,8.63
2022-11-24T14:37:56.627Z,6.43
2022-11-24T14:40:44.035Z,4.30
2022-11-24T14:43:25.625Z,7.55
2022-11-24T14:45:56.253Z,5.82
2022-11-24T14:48:27.053Z,5.97
2022-11-24T14:51:04.133Z,6.15
2022-11-24T14:53:30.745Z,5.65
2022-11-24T14:56:07.946Z,6.55
2022-11-24T14:58:40.462Z,7.22
2022-11-24T15:01:18.510Z,9.73
2022-11-24T15:03:45.858Z,7.93
2022-11-24T15:06:19.239Z,5.15
2022-11-24T15:08:48.884Z,11.02
2022-11-24T15:11:15.964Z,13.45
2022-11-24T15:13:56.780Z,12.90
2022-11-24T15:16:26.661Z,12.38
2022-11-24T15:19:00.170Z,9.23
2022-11-24T15:21:37.348Z,12.50
2022-11-24T15:24:14.336Z,13.10
2022-11-24T15:26:42.333Z,18.63
2022-11-24T15:29:10.421Z,18.13
2022-11-24T15:31:37.641Z,28.45
2022-11-24T15:34:04.216Z,11.02
2022-11-24T15:36:30.566Z,6.47
2022-11-24T15:38:58.207Z,5.27
2022-11-24T15:41:30.654Z,5.50
2022-11-24T15:44:00.560Z,6.03
2022-11-24T15:46:28.066Z,6.70
2022-11-24T15:48:55.169Z,7.85
2022-11-24T15:51:24.789Z,6.90
2022-11-24T15:53:55.782Z,5.28
2022-11-24T15:56:32.343Z,15.10
2022-11-24T15:58:59.372Z,11.65
2022-11-24T16:01:30.727Z,11.55
2022-11-24T16:03:57.131Z,12.00
2022-11-24T16:06:25.017Z,5.53
2022-11-24T16:08:52.409Z,6.07
2022-11-24T16:11:18.897Z,8.23
2022-11-24T16:13:51.561Z,6.55
2022-11-24T16:16:19.404Z,11.07
2022-11-24T16:18:46.058Z,16.92
2022-11-24T16:21:12.489Z,35.20
2022-11-24T16:23:38.997Z,23.38
2022-11-24T16:26:06.413Z,14.32
2022-11-24T16:28:33.085Z,9.90
2022-11-24T16:30:59.679Z,8.65
2022-11-24T16:33:26.254Z,8.60
2022-11-24T16:35:52.755Z,7.75
2022-11-24T16:38:20.150Z,13.38
2022-11-24T16:40:59.110Z,13.57
2022-11-24T16:43:25.706Z,10.63
2022-11-24T16:46:24.170Z,9.98
2022-11-24T16:48:52.997Z,7.80
2022-11-24T16:51:22.099Z,5.57
2022-11-24T16:53:56.246Z,5.83
2022-11-24T16:56:22.729Z,6.53
2022-11-24T16:58:49.266Z,5.57
2022-11-24T17:01:15.801Z,7.25
2022-11-24T17:03:42.473Z,6.43
2022-11-24T17:06:11.744Z,8.63
2022-11-24T17:08:40.498Z,6.07
2022-11-24T17:11:18.754Z,7.63
2022-11-24T17:13:47.284Z,8.60
2022-11-24T17:16:17.061Z,7.40
2022-11-24T17:18:44.381Z,8.20
2022-11-24T17:21:17.035Z,6.72
2022-11-24T17:23:43.929Z,7.00
2022-11-24T17:26:12.849Z,5.90
2022-11-24T17:28:39.798Z,6.68
2022-11-24T17:31:14.424Z,9.63
2022-11-24T17:33:41.122Z,12.10
2022-11-24T17:36:07.956Z,13.95
2022-11-24T17:38:35.064Z,26.13
2022-11-24T17:41:02.017Z,24.08
2022-11-24T17:43:28.941Z,18.93
2022-11-24T17:45:57.860Z,17.33
2022-11-24T17:48:24.609Z,13.25
2022-11-24T17:51:02.157Z,11.27
2022-11-24T17:53:29.268Z,9.48
2022-11-24T17:56:00.113Z,11.73
2022-11-24T17:58:28.760Z,12.68
2022-11-24T18:00:55.849Z,11.85
2022-11-24T18:03:23.124Z,12.73
2022-11-24T18:05:50.080Z,13.00
2022-11-24T18:08:17.114Z,12.30
2022-11-24T18:10:43.452Z,10.55
2022-11-24T18:13:22.188Z,8.18
2022-11-24T18:16:02.576Z,8.23
2022-11-24T18:18:29.511Z,10.57
2022-11-24T18:20:57.531Z,16.00
2022-11-24T18:23:24.643Z,15.82
2022-11-24T18:25:59.114Z,14.07
2022-11-24T18:28:26.600Z,14.93
2022-11-24T18:30:53.551Z,11.90
2022-11-24T18:33:20.238Z,11.40
2022-11-24T18:36:01.154Z,11.10
2022-11-24T18:38:28.418Z,8.52
2022-11-24T18:40:56.646Z,9.82
2022-11-24T18:43:24.390Z,13.23
2022-11-24T18:45:53.197Z,15.67
2022-11-24T18:48:21.480Z,16.65
2022-11-24T18:50:52.148Z,12.65
2022-11-24T18:53:19.785Z,14.30
2022-11-24T18:55:59.544Z,13.15
2022-11-24T18:58:29.962Z,12.63
2022-11-24T19:01:21.203Z,11.00
2022-11-24T19:03:56.046Z,12.13
2022-11-24T19:06:31.978Z,12.98
2022-11-24T19:08:59.893Z,13.57
2022-11-24T19:11:35.569Z,16.67
2022-11-24T19:14:04.478Z,16.33
2022-11-24T19:16:31.232Z,22.40
2022-11-24T19:19:02.723Z,19.95
2022-11-24T19:21:34.400Z,25.85
2022-11-24T19:24:04.803Z,21.50
2022-11-24T19:26:32.265Z,22.70
2022-11-24T19:28:58.780Z,22.42
2022-11-24T19:31:25.399Z,29.27
2022-11-24T19:33:54.230Z,29.30
2022-11-24T19:36:21.895Z,27.90
2022-11-24T19:38:50.769Z,28.98
2022-11-24T19:41:19.593Z,30.20
2022-11-24T19:43:47.225Z,30.20
2022-11-24T19:46:16.098Z,31.67
2022-11-24T19:48:44.691Z,34.23
2022-11-24T19:51:16.886Z,33.15
2022-11-24T19:53:43.868Z,31.85
2022-11-24T19:56:11.639Z,27.23
2022-11-24T19:58:39.776Z,29.25
2022-11-24T20:01:11.114Z,28.57
2022-11-24T20:03:38.961Z,34.63
2022-11-24T20:06:06.841Z,33.70
2022-11-24T20:08:35.485Z,36.83
2022-11-24T20:11:03.865Z,33.22
2022-11-24T20:13:31.157Z,33.10
2022-11-24T20:16:06.226Z,35.80
2022-11-24T20:18:36.365Z,37.17
2022-11-24T20:21:25.522Z,35.13
2022-11-24T20:24:00.124Z,34.92
2022-11-24T20:26:29.855Z,37.00
2022-11-24T20:28:58.594Z,36.95
2022-11-24T20:31:31.035Z,34.90
2022-11-24T20:33:58.935Z,36.08
2022-11-24T20:36:27.907Z,32.47
2022-11-24T20:38:55.238Z,43.87
2022-11-24T20:41:26.962Z,38.92
2022-11-24T20:43:55.305Z,38.95
2022-11-24T20:46:27.504Z,42.25
2022-11-24T20:48:55.134Z,43.97
2022-11-24T20:51:27.838Z,48.75
2022-11-24T20:53:57.534Z,43.00
2022-11-24T20:56:31.343Z,40.60
2022-11-24T20:58:58.425Z,44.30
2022-11-24T21:01:35.184Z,47.28
2022-11-24T21:04:02.878Z,40.08
2022-11-24T21:06:29.754Z,42.58
2022-11-24T21:09:02.047Z,38.85
2022-11-24T21:11:30.716Z,39.47
2022-11-24T21:13:57.547Z,37.05
2022-11-24T21:16:32.965Z,39.15
2022-11-24T21:19:04.733Z,40.10
2022-11-24T21:21:34.704Z,39.20
2022-11-24T21:24:03.016Z,38.22
2022-11-24T21:26:29.680Z,36.40
2022-11-24T21:28:57.418Z,36.38
2022-11-24T21:31:23.911Z,35.35
2022-11-24T21:33:52.512Z,39.28
2022-11-24T21:36:22.294Z,35.05
2022-11-24T21:38:54.048Z,34.67
2022-11-24T21:41:21.491Z,40.33
2022-11-24T21:43:48.656Z,36.80
2022-11-24T21:46:15.259Z,40.58
2022-11-24T21:48:42.595Z,38.42
2022-11-24T21:51:13.007Z,32.25
2022-11-24T21:53:40.589Z,44.22
2022-11-24T21:56:12.855Z,45.35
2022-11-24T21:58:47.562Z,46.13
2022-11-24T22:01:16.053Z,41.55
2022-11-24T22:03:43.250Z,42.70
2022-11-24T22:06:09.989Z,45.40
2022-11-24T22:08:36.356Z,42.85
2022-11-24T22:11:02.786Z,43.17
2022-11-24T22:13:29.369Z,36.75
2022-11-24T22:16:00.846Z,38.20
2022-11-24T22:18:30.715Z,40.70
2022-11-24T22:20:57.038Z,37.70
2022-11-24T22:23:23.529Z,36.40
2022-11-24T22:25:49.846Z,44.35
2022-11-24T22:28:16.371Z,40.33
2022-11-24T22:30:42.897Z,36.92
2022-11-24T22:33:09.267Z,34.35
2022-11-24T22:35:35.874Z,40.25
2022-11-24T22:38:02.391Z,35.63
2022-11-24T22:40:28.894Z,36.90
2022-11-24T22:42:55.403Z,45.37
2022-11-24T22:45:21.964Z,63.20
2022-11-24T22:47:48.292Z,56.80
2022-11-24T22:50:14.646Z,48.72
2022-11-24T22:52:41.006Z,56.30
2022-11-24T22:55:07.933Z,40.80
2022-11-24T22:57:34.470Z,36.13
2022-11-24T23:00:01.022Z,35.50
2022-11-24T23:02:28.338Z,35.67
2022-11-24T23:04:54.746Z,47.97
2022-11-24T23:07:21.229Z,30.30
2022-11-24T23:09:47.818Z,56.85
2022-11-24T23:12:14.245Z,73.43
2022-11-24T23:14:40.583Z,47.88
2022-11-24T23:17:07.086Z,51.40
2022-11-24T23:19:33.564Z,39.33
2022-11-24T23:21:59.890Z,25.65
2022-11-24T23:24:26.185Z,34.45
2022-11-24T23:26:52.644Z,37.10
2022-11-24T23:29:19.198Z,20.30
2022-11-24T23:31:46.020Z,29.98
2022-11-24T23:34:12.548Z,21.90
2022-11-24T23:36:39.136Z,42.15
2022-11-24T23:39:08.721Z,26.08
2022-11-24T23:41:35.766Z,25.38
2022-11-24T23:44:02.481Z,33.33
2022-11-24T23:46:29.576Z,20.90
2022-11-24T23:48:56.854Z,43.67
2022-11-24T23:51:26.272Z,34.20
2022-11-24T23:53:53.582Z,31.63
2022-11-24T23:56:22.612Z,34.90
2022-11-24T23:58:49.394Z,20.38
